Time;durP1;ratioP1;P1;durP2;ratioP2;P2;SDS_P1;SDS_P2;PMS_P1;PMS_P2;Temp;Humidity;BMP_temperature;BMP_pressure;BME280_temperature;BME280_humidity;BME280_pressure;Samples;Min_cycle;Max_cycle;Signal;HPM_P1;HPM_P2
2020/12/13 00:01:12;;;;;;;9.80;6.57;;;6.70;86.60;;;;;;5011120;28;20050;-71
2020/12/13 00:03:39;;;;;;;9.77;6.38;;;6.60;86.60;;;;;;5008621;28;20046;-70
2020/12/13 00:06:06;;;;;;;8.98;6.55;;;6.60;86.50;;;;;;5013701;28;20041;-70
2020/12/13 00:08:33;;;;;;;11.52;6.43;;;6.70;86.70;;;;;;5010697;28;20058;-70
2020/12/13 00:11:00;;;;;;;10.32;6.68;;;6.70;86.60;;;;;;5012338;28;20512;-70
2020/12/13 00:13:27;;;;;;;10.57;6.45;;;6.70;86.50;;;;;;5007984;28;20125;-71
2020/12/13 00:15:54;;;;;;;8.77;6.38;;;6.60;86.40;;;;;;5011179;28;20045;-71
2020/12/13 00:18:21;;;;;;;11.40;6.68;;;6.60;86.40;;;;;;5010919;28;20041;-68
2020/12/13 00:20:49;;;;;;;9.85;6.93;;;6.60;86.30;;;;;;5010317;28;20053;-71
2020/12/13 00:23:16;;;;;;;7.93;6.25;;;6.70;86.50;;;;;;5009713;28;20093;-71
2020/12/13 00:25:43;;;;;;;8.30;6.68;;;6.60;86.00;;;;;;5011995;28;20076;-72
2020/12/13 00:28:10;;;;;;;8.95;6.40;;;6.70;86.30;;;;;;5012466;28;20072;-72
2020/12/13 00:30:37;;;;;;;9.57;6.88;;;6.70;86.20;;;;;;5008727;28;20217;-71
2020/12/13 00:33:04;;;;;;;10.85;6.15;;;6.60;86.10;;;;;;5009706;28;20056;-70
2020/12/13 00:35:31;;;;;;;9.35;6.38;;;6.60;85.90;;;;;;5009941;28;20137;-71
2020/12/13 00:37:59;;;;;;;11.70;7.15;;;6.70;86.30;;;;;;5010457;28;20061;-71
2020/12/13 00:40:27;;;;;;;11.15;6.63;;;6.70;86.30;;;;;;5011014;28;20042;-71
2020/12/13 00:42:54;;;;;;;13.05;7.78;;;6.70;86.40;;;;;;5009235;28;20424;-71
2020/12/13 00:45:21;;;;;;;13.05;7.65;;;6.70;86.40;;;;;;5010419;28;20416;-71
2020/12/13 00:47:48;;;;;;;10.82;7.25;;;6.70;86.40;;;;;;5009426;28;20401;-71
2020/12/13 00:50:15;;;;;;;11.68;7.65;;;6.70;86.50;;;;;;5011107;28;20049;-71
2020/12/13 00:52:42;;;;;;;10.43;6.10;;;6.70;86.50;;;;;;5008353;28;20073;-72
2020/12/13 00:55:10;;;;;;;9.60;7.00;;;6.70;86.60;;;;;;5011522;28;20042;-72
2020/12/13 00:57:37;;;;;;;8.35;6.07;;;6.70;86.40;;;;;;5011679;28;20053;-71
2020/12/13 01:00:05;;;;;;;11.00;6.97;;;6.70;86.60;;;;;;5010791;28;20046;-74
2020/12/13 01:02:32;;;;;;;11.95;7.15;;;6.70;86.50;;;;;;5008463;28;20053;-71
2020/12/13 01:04:59;;;;;;;16.15;6.60;;;6.70;86.50;;;;;;5016515;28;20054;-71
2020/12/13 01:07:27;;;;;;;11.65;6.60;;;6.70;86.70;;;;;;5013802;28;20054;-71
2020/12/13 01:09:54;;;;;;;10.05;6.90;;;6.70;86.60;;;;;;5013692;28;20042;-71
2020/12/13 01:12:22;;;;;;;11.65;6.20;;;6.70;86.70;;;;;;5009847;28;20061;-70
2020/12/13 01:14:49;;;;;;;11.30;6.55;;;6.70;86.80;;;;;;5014472;28;20096;-71
2020/12/13 01:17:16;;;;;;;14.93;7.18;;;6.70;86.80;;;;;;5017318;28;20072;-71
2020/12/13 01:19:47;;;;;;;11.82;6.15;;;6.70;86.80;;;;;;5013982;28;20129;-72
2020/12/13 01:22:14;;;;;;;8.77;7.03;;;6.70;86.70;;;;;;5013012;28;20152;-71
2020/12/13 01:24:41;;;;;;;7.93;5.90;;;6.70;86.80;;;;;;5014643;28;20041;-71
2020/12/13 01:27:08;;;;;;;8.25;6.00;;;6.70;86.70;;;;;;5016018;28;20046;-73
2020/12/13 01:29:35;;;;;;;9.25;5.85;;;6.70;86.60;;;;;;5011965;28;20065;-71
2020/12/13 01:32:02;;;;;;;7.53;5.90;;;6.70;86.50;;;;;;5011304;28;20251;-68
2020/12/13 01:34:29;;;;;;;6.90;5.30;;;6.70;86.40;;;;;;5012531;28;20061;-72
2020/12/13 01:36:56;;;;;;;9.52;5.93;;;6.70;86.30;;;;;;5014008;28;20046;-72
2020/12/13 01:39:23;;;;;;;9.68;6.07;;;6.60;85.80;;;;;;5013432;28;20046;-72
2020/12/13 01:41:56;;;;;;;10.63;6.68;;;6.60;85.70;;;;;;5013176;28;20057;-70
2020/12/13 01:44:30;;;;;;;10.45;6.40;;;6.60;85.60;;;;;;5012407;28;20053;-71
2020/12/13 01:46:58;;;;;;;9.05;6.65;;;6.60;85.50;;;;;;5013452;28;20042;-71
2020/12/13 01:49:31;;;;;;;9.30;5.97;;;6.60;85.40;;;;;;5013152;28;20061;-71
2020/12/13 01:52:39;;;;;;;8.20;6.20;;;6.60;85.10;;;;;;5011189;28;20412;-69
2020/12/13 01:55:01;;;;;;;8.15;6.13;;;6.60;85.10;;;;;;5012339;28;20053;-69
2020/12/13 01:57:32;;;;;;;9.20;6.00;;;6.70;85.00;;;;;;5012334;28;20131;-70
2020/12/13 02:00:04;;;;;;;7.40;5.47;;;6.50;84.20;;;;;;5010342;28;20104;-72
2020/12/13 02:02:36;;;;;;;9.25;6.10;;;6.60;84.50;;;;;;5009271;28;20064;-71
2020/12/13 02:05:04;;;;;;;7.10;5.53;;;6.60;84.50;;;;;;5015551;28;20131;-71
2020/12/13 02:07:31;;;;;;;7.47;5.53;;;6.60;84.30;;;;;;5014500;28;20049;-70
2020/12/13 02:09:59;;;;;;;9.50;5.90;;;6.60;84.50;;;;;;5011194;28;20046;-69
2020/12/13 02:12:26;;;;;;;6.57;5.68;;;6.60;84.50;;;;;;5009964;28;20057;-71
2020/12/13 02:14:53;;;;;;;8.15;6.00;;;6.60;84.70;;;;;;5016153;28;20487;-70
2020/12/13 02:17:21;;;;;;;7.60;5.72;;;6.50;84.60;;;;;;5012939;28;20500;-72
2020/12/13 02:19:49;;;;;;;7.53;5.60;;;6.50;84.80;;;;;;5012928;28;20042;-71
2020/12/13 02:22:19;;;;;;;7.60;5.53;;;6.50;85.00;;;;;;5009905;28;20056;-71
2020/12/13 02:24:47;;;;;;;8.13;6.03;;;6.50;85.10;;;;;;5012189;28;20087;-71
2020/12/13 02:27:14;;;;;;;6.93;5.80;;;6.50;84.90;;;;;;5013259;28;20050;-70
2020/12/13 02:29:42;;;;;;;6.68;5.53;;;6.50;84.70;;;;;;5012859;28;20061;-70
2020/12/13 02:32:09;;;;;;;9.18;5.20;;;6.60;84.60;;;;;;5009668;28;20081;-71
2020/12/13 02:34:36;;;;;;;6.55;5.15;;;6.70;84.30;;;;;;5010985;28;20446;-71
2020/12/13 02:37:03;;;;;;;6.38;5.03;;;6.70;83.60;;;;;;5011184;28;20053;-69
2020/12/13 02:39:31;;;;;;;5.53;4.63;;;6.70;82.30;;;;;;5010900;28;20061;-70
2020/12/13 02:42:02;;;;;;;7.03;5.20;;;6.70;80.50;;;;;;5009986;28;20057;-70
2020/12/13 02:44:29;;;;;;;6.07;4.57;;;6.70;81.00;;;;;;5011824;28;20112;-71
2020/12/13 02:46:56;;;;;;;9.02;5.00;;;6.70;80.20;;;;;;5008087;28;20046;-71
2020/12/13 02:49:23;;;;;;;5.25;4.47;;;6.70;81.30;;;;;;5011398;28;20049;-71
2020/12/13 02:51:51;;;;;;;5.35;4.13;;;6.60;80.70;;;;;;5011996;28;20057;-70
2020/12/13 02:54:18;;;;;;;5.43;4.53;;;6.60;80.60;;;;;;5010481;28;20077;-70
2020/12/13 02:56:46;;;;;;;7.20;4.60;;;6.60;81.50;;;;;;5011131;28;20046;-71
2020/12/13 02:59:13;;;;;;;5.72;4.43;;;6.60;81.90;;;;;;5010011;28;20046;-70
2020/12/13 03:01:40;;;;;;;7.20;4.95;;;6.60;81.90;;;;;;5011363;28;20050;-71
2020/12/13 03:04:07;;;;;;;9.32;5.28;;;6.60;82.30;;;;;;5007015;28;20507;-72
2020/12/13 03:06:33;;;;;;;7.90;5.85;;;6.60;82.30;;;;;;5010730;28;20137;-71
2020/12/13 03:09:00;;;;;;;6.38;4.95;;;6.50;82.60;;;;;;5010173;28;20049;-71
2020/12/13 03:11:28;;;;;;;5.75;4.45;;;6.50;82.70;;;;;;5011627;28;20065;-71
2020/12/13 03:13:55;;;;;;;7.32;4.95;;;6.50;82.50;;;;;;5008380;28;20045;-70
2020/12/13 03:16:22;;;;;;;6.00;4.47;;;6.60;82.30;;;;;;5015067;28;20061;-70
2020/12/13 03:18:49;;;;;;;5.97;4.60;;;6.60;82.10;;;;;;5011784;28;20389;-69
2020/12/13 03:21:16;;;;;;;6.32;4.60;;;6.50;81.70;;;;;;5010398;28;20059;-70
2020/12/13 03:23:43;;;;;;;10.05;5.03;;;6.50;81.20;;;;;;5010221;28;20107;-69
2020/12/13 03:26:10;;;;;;;5.88;4.20;;;6.50;81.60;;;;;;5009759;28;20042;-70
2020/12/13 03:28:37;;;;;;;8.07;5.43;;;6.50;81.40;;;;;;5012141;28;20554;-69
2020/12/13 03:31:05;;;;;;;5.95;4.45;;;6.50;81.90;;;;;;5010945;28;20058;-70
2020/12/13 03:33:32;;;;;;;5.55;4.55;;;6.50;82.40;;;;;;5009639;28;20440;-68
2020/12/13 03:35:58;;;;;;;7.68;5.20;;;6.50;82.80;;;;;;5009241;28;20045;-69
2020/12/13 03:38:25;;;;;;;6.78;5.03;;;6.50;82.70;;;;;;5012729;28;20057;-68
2020/12/13 03:44:39;;;;;;;;;;;6.50;81.70;;;;;;5009957;28;20072;-70
2020/12/13 03:47:07;;;;;;;8.32;5.25;;;6.50;82.00;;;;;;5009884;28;20372;-70
2020/12/13 03:49:34;;;;;;;8.68;4.82;;;6.60;82.40;;;;;;5010112;28;20061;-70
2020/12/13 03:52:00;;;;;;;5.78;4.70;;;6.50;82.40;;;;;;5008135;28;20046;-70
2020/12/13 03:54:27;;;;;;;5.30;4.22;;;6.50;82.70;;;;;;5009745;28;20042;-71
2020/12/13 03:56:54;;;;;;;6.85;4.50;;;6.50;83.40;;;;;;5010039;28;20054;-71
2020/12/13 03:59:21;;;;;;;10.45;4.32;;;6.60;83.50;;;;;;5009285;28;20858;-71
2020/12/13 04:01:48;;;;;;;9.70;3.85;;;6.60;82.60;;;;;;5008826;28;20104;-71
2020/12/13 04:04:16;;;;;;;6.07;3.72;;;6.60;81.80;;;;;;5008546;28;20145;-71
2020/12/13 04:06:43;;;;;;;4.68;3.45;;;6.70;81.00;;;;;;5012556;28;20061;-71
2020/12/13 04:09:10;;;;;;;9.13;3.45;;;6.70;80.00;;;;;;5009125;28;20072;-71
2020/12/13 04:11:37;;;;;;;6.20;3.55;;;6.70;78.60;;;;;;5006503;28;20053;-71
2020/12/13 04:14:03;;;;;;;4.65;3.33;;;6.70;78.00;;;;;;5008900;28;20522;-71
2020/12/13 04:16:31;;;;;;;4.07;3.47;;;6.70;77.70;;;;;;5011565;28;20054;-70
2020/12/13 04:18:58;;;;;;;4.40;3.00;;;6.80;77.00;;;;;;5010810;28;20048;-71
2020/12/13 04:21:26;;;;;;;4.53;3.42;;;6.70;75.90;;;;;;5012044;28;20046;-69
2020/12/13 04:23:53;;;;;;;5.13;3.38;;;6.70;76.50;;;;;;5009654;28;20053;-70
2020/12/13 04:26:20;;;;;;;6.90;3.63;;;6.70;77.10;;;;;;5011336;28;20048;-70
2020/12/13 04:28:47;;;;;;;4.07;3.45;;;6.70;77.30;;;;;;5009979;28;20046;-70
2020/12/13 04:31:14;;;;;;;5.30;3.80;;;6.70;77.50;;;;;;5011149;28;20060;-70
2020/12/13 04:33:41;;;;;;;4.60;3.72;;;6.70;77.70;;;;;;5010937;28;20056;-70
2020/12/13 04:36:08;;;;;;;7.88;3.78;;;6.70;78.10;;;;;;5009786;28;20546;-71
2020/12/13 04:38:37;;;;;;;6.75;4.63;;;6.70;78.50;;;;;;5009267;28;21284;-70
2020/12/13 04:41:04;;;;;;;9.70;4.00;;;6.60;79.60;;;;;;5010082;28;20045;-71
2020/12/13 04:43:30;;;;;;;5.20;3.83;;;6.60;80.10;;;;;;5011432;28;20145;-71
2020/12/13 04:45:58;;;;;;;5.93;3.80;;;6.60;80.90;;;;;;5010853;28;20049;-71
2020/12/13 04:48:27;;;;;;;6.82;3.70;;;6.60;81.30;;;;;;5009812;28;20049;-70
2020/12/13 04:50:56;;;;;;;7.35;4.13;;;6.60;81.60;;;;;;5011015;28;20038;-70
2020/12/13 04:53:28;;;;;;;7.38;4.55;;;6.60;82.10;;;;;;5010300;28;20049;-69
2020/12/13 04:55:57;;;;;;;5.50;4.20;;;6.70;82.50;;;;;;5009878;28;20077;-70
2020/12/13 04:58:25;;;;;;;8.00;4.40;;;6.70;82.50;;;;;;5009883;28;20492;-70
2020/12/13 05:00:55;;;;;;;6.20;4.82;;;6.70;82.40;;;;;;5010937;28;20046;-69
2020/12/13 05:03:22;;;;;;;5.80;4.47;;;6.70;82.30;;;;;;5011051;28;20748;-71
2020/12/13 05:05:50;;;;;;;6.80;5.07;;;6.70;82.10;;;;;;5008015;28;20046;-72
2020/12/13 05:08:17;;;;;;;7.10;5.30;;;6.70;81.70;;;;;;5008821;28;20052;-71
2020/12/13 05:10:44;;;;;;;8.73;5.22;;;6.80;81.90;;;;;;5010462;28;20046;-71
2020/12/13 05:13:12;;;;;;;9.55;5.20;;;6.80;81.80;;;;;;5009674;28;20068;-71
2020/12/13 05:15:39;;;;;;;7.75;5.15;;;6.80;81.80;;;;;;5010520;28;20508;-70
2020/12/13 05:18:06;;;;;;;6.10;4.93;;;6.80;81.60;;;;;;5009737;28;20152;-70
2020/12/13 05:20:33;;;;;;;6.43;4.70;;;6.80;81.60;;;;;;5009323;28;20050;-70
2020/12/13 05:23:01;;;;;;;8.98;5.15;;;6.80;81.60;;;;;;5010774;28;20046;-71
2020/12/13 05:25:35;;;;;;;8.23;5.53;;;6.80;81.50;;;;;;5010493;28;20052;-70
2020/12/13 05:28:03;;;;;;;;;;;6.80;81.70;;;;;;5009867;28;20528;-69
2020/12/13 05:30:34;;;;;;;6.25;4.80;;;6.80;81.90;;;;;;5010485;28;19921;-69
2020/12/13 05:33:03;;;;;;;6.32;4.50;;;6.80;81.80;;;;;;5010615;28;20079;-71
2020/12/13 05:35:30;;;;;;;6.25;4.80;;;6.80;81.80;;;;;;5009193;28;20492;-70
2020/12/13 05:37:56;;;;;;;8.43;5.15;;;6.80;81.80;;;;;;5009458;28;20049;-70
2020/12/13 05:40:24;;;;;;;9.43;4.63;;;6.90;81.80;;;;;;5010739;28;20404;-70
2020/12/13 05:43:02;;;;;;;7.80;4.57;;;6.90;81.60;;;;;;5010537;28;20050;-70
2020/12/13 05:48:44;;;;;;;7.43;4.40;;;6.90;81.40;;;;;;5007650;28;20485;-70
2020/12/13 05:51:24;;;;;;;5.50;4.30;;;6.90;81.60;;;;;;5013625;28;20037;-70
2020/12/13 05:53:55;;;;;;;10.65;4.72;;;6.90;81.50;;;;;;5013848;28;20050;-70
2020/12/13 05:56:22;;;;;;;6.05;3.75;;;6.90;81.70;;;;;;5014473;28;20054;-71
2020/12/13 05:58:51;;;;;;;8.30;4.97;;;6.90;81.50;;;;;;5011506;28;20056;-70
2020/12/13 06:01:23;;;;;;;7.20;4.68;;;6.90;81.10;;;;;;5013956;28;20492;-70
2020/12/13 06:03:51;;;;;;;6.72;4.72;;;6.90;81.30;;;;;;5012513;28;20042;-70
2020/12/13 06:06:22;;;;;;;7.47;4.82;;;6.90;81.50;;;;;;5014056;28;20049;-70
2020/12/13 06:09:02;;;;;;;7.82;5.10;;;6.90;81.80;;;;;;5011604;28;20050;-69
2020/12/13 06:11:35;;;;;;;7.18;4.82;;;6.90;82.20;;;;;;5011734;28;20049;-69
2020/12/13 06:14:14;;;;;;;7.63;5.05;;;6.90;82.60;;;;;;5012476;28;20042;-70
2020/12/13 06:16:43;;;;;;;8.48;4.55;;;6.90;82.60;;;;;;5013201;28;20042;-70
2020/12/13 06:19:14;;;;;;;6.93;5.40;;;6.90;82.90;;;;;;5011595;28;20092;-70
2020/12/13 06:21:43;;;;;;;7.90;5.13;;;6.90;83.60;;;;;;5013727;28;20049;-69
2020/12/13 06:24:10;;;;;;;12.27;4.78;;;6.80;83.60;;;;;;5012165;28;20481;-71
2020/12/13 06:26:37;;;;;;;7.25;4.82;;;6.90;83.80;;;;;;5013609;28;20081;-70
2020/12/13 06:29:05;;;;;;;6.25;4.75;;;6.90;83.80;;;;;;5011974;28;20045;-70
2020/12/13 06:31:34;;;;;;;7.00;4.90;;;6.90;83.80;;;;;;5013524;28;20053;-70
2020/12/13 06:34:03;;;;;;;5.75;4.50;;;6.90;83.80;;;;;;5013133;28;20041;-69
2020/12/13 06:36:32;;;;;;;5.95;4.70;;;6.90;83.80;;;;;;5011912;28;20075;-69
2020/12/13 06:38:59;;;;;;;8.77;5.35;;;6.90;83.80;;;;;;5011580;28;20049;-70
2020/12/13 06:41:29;;;;;;;11.57;5.53;;;6.90;83.80;;;;;;5013189;28;20644;-70
2020/12/13 06:44:04;;;;;;;8.57;5.53;;;7.00;83.90;;;;;;5012993;28;20423;-69
2020/12/13 06:46:31;;;;;;;7.72;5.20;;;7.00;83.70;;;;;;5012212;28;20392;-69
2020/12/13 06:48:59;;;;;;;7.38;5.35;;;7.00;82.30;;;;;;5011695;28;20496;-69
2020/12/13 06:51:29;;;;;;;6.72;5.10;;;7.00;81.70;;;;;;5013062;28;20436;-68
2020/12/13 06:53:58;;;;;;;9.57;5.90;;;7.00;81.20;;;;;;5012491;28;20076;-69
2020/12/13 06:56:25;;;;;;;9.38;5.95;;;7.10;80.10;;;;;;5012979;28;20046;-69
2020/12/13 06:58:56;;;;;;;7.35;5.45;;;7.10;80.00;;;;;;5012169;28;20049;-70
2020/12/13 07:01:26;;;;;;;7.63;5.53;;;7.10;79.40;;;;;;5011815;28;20213;-73
2020/12/13 07:03:54;;;;;;;7.30;5.10;;;7.10;80.00;;;;;;5011268;28;20053;-71
2020/12/13 07:06:23;;;;;;;8.60;5.18;;;7.10;79.50;;;;;;5012616;28;20507;-71
2020/12/13 07:08:55;;;;;;;6.90;5.68;;;7.10;79.50;;;;;;5011405;28;20145;-71
2020/12/13 07:11:24;;;;;;;8.30;5.13;;;7.10;79.60;;;;;;5008406;28;20042;-71
2020/12/13 07:14:00;;;;;;;8.23;5.85;;;7.10;79.60;;;;;;5012286;28;20056;-71
2020/12/13 07:16:33;;;;;;;6.75;5.03;;;7.10;79.80;;;;;;5012632;28;20049;-71
2020/12/13 07:19:06;;;;;;;6.95;5.00;;;7.10;79.70;;;;;;5010512;28;20058;-70
2020/12/13 07:21:34;;;;;;;6.47;5.13;;;7.10;79.20;;;;;;5011625;28;20045;-71
2020/12/13 07:24:02;;;;;;;8.25;6.03;;;7.10;79.80;;;;;;5012266;28;20050;-72
2020/12/13 07:26:31;;;;;;;7.90;5.35;;;7.10;79.70;;;;;;5010837;28;20049;-71
2020/12/13 07:28:59;;;;;;;8.95;6.05;;;7.10;79.90;;;;;;5010952;28;20488;-71
2020/12/13 07:31:28;;;;;;;8.32;6.25;;;7.10;79.30;;;;;;5012399;28;20053;-70
2020/12/13 07:33:55;;;;;;;7.80;5.82;;;7.10;79.70;;;;;;5011729;28;20467;-71
2020/12/13 07:36:22;;;;;;;7.85;5.95;;;7.10;79.30;;;;;;5011944;28;20046;-71
2020/12/13 07:38:49;;;;;;;8.95;5.97;;;7.10;79.50;;;;;;5010757;28;20045;-71
2020/12/13 07:41:18;;;;;;;8.23;6.13;;;7.10;79.20;;;;;;5012016;28;20050;-72
2020/12/13 07:43:57;;;;;;;8.88;6.30;;;7.10;79.20;;;;;;5011805;28;20046;-71
2020/12/13 07:46:24;;;;;;;12.20;5.70;;;7.10;79.50;;;;;;5011803;28;20072;-71
2020/12/13 07:49:06;;;;;;;8.90;6.38;;;7.10;79.10;;;;;;5010555;28;20045;-70
2020/12/13 07:51:35;;;;;;;7.68;5.60;;;7.10;79.20;;;;;;5011641;28;20064;-70
2020/12/13 07:54:10;;;;;;;9.13;6.70;;;7.10;79.20;;;;;;5010469;28;20053;-70
2020/12/13 07:56:37;;;;;;;;;;;7.10;79.20;;;;;;5010953;28;20050;-70
2020/12/13 07:59:12;;;;;;;9.10;6.05;;;7.10;79.70;;;;;;5010310;28;20507;-70
2020/12/13 08:01:40;;;;;;;11.68;6.82;;;7.10;79.60;;;;;;5011222;28;20056;-70
2020/12/13 08:04:07;;;;;;;7.82;6.03;;;7.10;78.70;;;;;;5011106;28;20049;-70
2020/12/13 08:06:34;;;;;;;10.93;7.07;;;7.10;79.50;;;;;;5011434;28;20436;-72
2020/12/13 08:09:07;;;;;;;13.63;8.65;;;7.10;80.10;;;;;;5010141;28;20045;-70
2020/12/13 08:11:35;;;;;;;12.25;8.23;;;7.10;80.00;;;;;;5009932;28;20504;-72
2020/12/13 08:14:04;;;;;;;16.20;10.57;;;7.10;80.10;;;;;;5010504;28;20057;-71
2020/12/13 08:16:32;;;;;;;13.82;8.70;;;7.10;79.20;;;;;;5009993;28;20042;-71
2020/12/13 08:19:05;;;;;;;16.85;11.00;;;7.10;79.60;;;;;;5010311;28;20132;-70
2020/12/13 08:21:45;;;;;;;13.35;9.27;;;7.10;79.30;;;;;;5010670;28;20057;-71
2020/12/13 08:24:14;;;;;;;14.40;9.43;;;7.10;79.10;;;;;;5010598;28;20523;-71
2020/12/13 08:26:43;;;;;;;15.57;9.65;;;7.10;78.30;;;;;;5010054;28;20042;-71
2020/12/13 08:29:11;;;;;;;13.48;9.60;;;7.10;78.60;;;;;;5009973;28;20054;-70
2020/12/13 08:31:39;;;;;;;15.05;9.45;;;7.20;77.90;;;;;;5011365;28;20052;-71
2020/12/13 08:34:07;;;;;;;16.05;9.32;;;7.10;75.70;;;;;;5009981;28;20129;-71
2020/12/13 08:36:34;;;;;;;12.68;9.02;;;7.10;76.20;;;;;;5011476;28;20048;-71
2020/12/13 08:39:07;;;;;;;15.00;9.60;;;7.10;75.70;;;;;;5009236;28;20424;-71
2020/12/13 08:41:35;;;;;;;14.85;9.82;;;7.10;74.50;;;;;;5011465;28;20045;-71
2020/12/13 08:44:02;;;;;;;13.60;9.38;;;7.20;76.20;;;;;;5010001;28;20052;-71
2020/12/13 08:46:41;;;;;;;16.45;8.98;;;7.20;72.70;;;;;;5010969;28;20054;-72
2020/12/13 08:49:09;;;;;;;14.13;8.77;;;7.20;73.20;;;;;;5010091;28;20081;-71
2020/12/13 08:51:36;;;;;;;16.63;10.30;;;7.20;72.30;;;;;;5011058;28;20495;-71
2020/12/13 08:54:05;;;;;;;13.43;9.13;;;7.30;72.40;;;;;;5010825;28;20050;-70
2020/12/13 08:56:34;;;;;;;14.32;8.68;;;7.30;72.30;;;;;;5011102;28;20058;-71
2020/12/13 08:59:02;;;;;;;14.25;8.48;;;7.30;70.50;;;;;;5009743;28;20073;-72
2020/12/13 09:01:35;;;;;;;14.10;7.50;;;7.30;67.30;;;;;;5009522;28;20052;-73
2020/12/13 09:04:17;;;;;;;11.82;8.00;;;7.30;67.50;;;;;;5010583;28;20073;-71
2020/12/13 09:06:53;;;;;;;10.30;7.05;;;7.30;66.80;;;;;;5009882;28;20578;-71
2020/12/13 09:09:21;;;;;;;10.82;7.18;;;7.30;65.50;;;;;;5009985;28;20073;-71
2020/12/13 09:11:49;;;;;;;10.43;7.55;;;7.30;62.50;;;;;;5010763;28;20049;-72
2020/12/13 09:14:29;;;;;;;8.82;6.80;;;7.30;61.60;;;;;;5010596;28;20050;-69
2020/12/13 09:16:56;;;;;;;11.85;7.57;;;7.30;62.90;;;;;;5009979;28;20048;-71
2020/12/13 09:19:24;;;;;;;12.48;7.07;;;7.30;64.20;;;;;;5010616;28;20045;-69
2020/12/13 09:21:53;;;;;;;11.07;7.53;;;7.40;64.40;;;;;;5009585;28;20052;-71
2020/12/13 09:24:22;;;;;;;11.40;7.95;;;7.40;62.90;;;;;;5012321;28;20464;-70
2020/12/13 09:27:03;;;;;;;10.23;7.25;;;7.40;64.20;;;;;;5014288;28;20042;-71
2020/12/13 09:29:31;;;;;;;9.55;6.75;;;7.40;61.60;;;;;;5013794;28;20050;-71
2020/12/13 09:31:58;;;;;;;11.70;6.72;;;7.50;60.30;;;;;;5014620;28;20040;-69
2020/12/13 09:34:27;;;;;;;10.35;6.40;;;7.40;59.50;;;;;;5012517;28;20046;-71
2020/12/13 09:36:54;;;;;;;11.57;6.65;;;7.50;61.00;;;;;;5013697;28;20049;-70
2020/12/13 09:39:30;;;;;;;9.13;6.65;;;7.60;59.60;;;;;;5013085;28;20042;-71
2020/12/13 09:41:57;;;;;;;9.02;5.63;;;7.60;59.70;;;;;;5013870;28;20041;-70
2020/12/13 09:44:25;;;;;;;10.38;6.15;;;7.70;57.90;;;;;;5014118;28;20416;-70
2020/12/13 09:46:54;;;;;;;10.35;6.20;;;7.70;57.80;;;;;;5013405;28;20048;-70
2020/12/13 09:49:22;;;;;;;7.78;5.57;;;7.70;57.10;;;;;;5011952;28;20042;-70
2020/12/13 09:51:54;;;;;;;8.05;5.97;;;7.70;56.50;;;;;;5013675;28;20052;-70
2020/12/13 09:54:21;;;;;;;9.07;5.75;;;7.70;57.20;;;;;;5012328;28;20587;-71
2020/12/13 09:56:48;;;;;;;7.78;5.53;;;7.70;56.80;;;;;;5013373;28;20052;-70
2020/12/13 09:59:15;;;;;;;9.23;5.75;;;7.70;56.20;;;;;;5013433;28;20424;-71
2020/12/13 10:01:42;;;;;;;7.55;5.55;;;7.60;55.20;;;;;;5013870;28;20133;-70
2020/12/13 10:04:09;;;;;;;14.13;5.93;;;7.70;57.00;;;;;;5012481;28;20053;-71
2020/12/13 10:06:48;;;;;;;9.93;4.93;;;7.70;53.80;;;;;;5013626;28;21367;-71
2020/12/13 10:09:16;;;;;;;6.25;4.82;;;7.80;56.60;;;;;;5013286;28;20056;-70
2020/12/13 10:11:45;;;;;;;7.50;5.35;;;7.90;54.80;;;;;;5012677;28;20385;-70
2020/12/13 10:14:13;;;;;;;7.85;4.70;;;7.90;54.10;;;;;;5013663;28;20050;-70
2020/12/13 10:16:41;;;;;;;8.18;4.80;;;7.90;52.70;;;;;;5013685;28;20046;-70
2020/12/13 10:19:09;;;;;;;5.43;4.03;;;8.00;52.80;;;;;;5012474;28;20045;-71
2020/12/13 10:21:36;;;;;;;6.53;3.60;;;8.00;47.10;;;;;;5013745;28;20046;-70
2020/12/13 10:24:04;;;;;;;5.32;3.88;;;8.00;48.00;;;;;;5011779;28;20052;-73
2020/12/13 10:26:35;;;;;;;6.03;3.55;;;7.80;47.40;;;;;;5013304;28;21192;-70
2020/12/13 10:29:03;;;;;;;7.57;4.00;;;7.90;48.70;;;;;;5010752;28;20779;-70
2020/12/13 10:31:31;;;;;;;6.30;3.40;;;7.80;47.60;;;;;;5013017;28;20515;-72
2020/12/13 10:33:59;;;;;;;8.55;4.00;;;7.80;46.90;;;;;;5013008;28;20069;-69
2020/12/13 10:36:26;;;;;;;6.72;4.07;;;7.80;48.60;;;;;;5012103;28;20046;-70
2020/12/13 10:38:53;;;;;;;6.97;4.95;;;7.70;48.20;;;;;;5011760;28;20507;-69
2020/12/13 10:41:21;;;;;;;9.15;4.22;;;7.80;48.60;;;;;;5013067;28;20550;-70
2020/12/13 10:43:49;;;;;;;7.88;4.72;;;7.80;47.50;;;;;;5013070;28;20045;-70
2020/12/13 10:46:17;;;;;;;6.72;4.60;;;7.80;48.60;;;;;;5012946;28;20419;-69
2020/12/13 10:48:45;;;;;;;8.20;4.72;;;7.80;48.60;;;;;;5010250;28;20046;-70
2020/12/13 10:51:14;;;;;;;9.88;5.25;;;7.80;47.40;;;;;;5012865;28;20046;-72
2020/12/13 10:53:41;;;;;;;7.80;4.70;;;7.80;48.40;;;;;;5012175;28;20041;-69
2020/12/13 10:56:08;;;;;;;9.38;4.25;;;7.90;48.70;;;;;;5012670;28;20050;-71
2020/12/13 10:58:35;;;;;;;9.32;5.25;;;7.80;46.70;;;;;;5011936;28;20056;-71
2020/12/13 11:01:02;;;;;;;8.35;5.70;;;7.80;47.40;;;;;;5012801;28;20056;-69
2020/12/13 11:03:29;;;;;;;6.20;4.13;;;7.80;49.70;;;;;;5011177;28;20054;-70
2020/12/13 11:05:56;;;;;;;6.90;4.25;;;7.90;47.80;;;;;;5012580;28;20046;-69
2020/12/13 11:08:26;;;;;;;12.20;5.10;;;8.00;48.70;;;;;;5011475;28;20068;-71
2020/12/13 11:10:54;;;;;;;7.25;5.10;;;8.10;48.50;;;;;;5010869;28;20562;-71
2020/12/13 11:13:21;;;;;;;4.70;3.75;;;8.20;47.80;;;;;;5012371;28;20492;-70
2020/12/13 11:15:48;;;;;;;4.93;3.60;;;8.40;44.60;;;;;;5011885;28;20526;-69
2020/12/13 11:18:16;;;;;;;6.03;3.38;;;8.40;44.50;;;;;;5010129;28;20436;-69
2020/12/13 11:20:43;;;;;;;6.53;3.55;;;8.50;40.90;;;;;;5011172;28;20500;-71
2020/12/13 11:23:10;;;;;;;5.47;3.72;;;8.50;39.80;;;;;;5012380;28;20045;-70
2020/12/13 11:25:36;;;;;;;7.25;4.88;;;8.30;40.80;;;;;;5010651;28;20132;-71
2020/12/13 11:28:05;;;;;;;6.80;4.00;;;8.20;41.00;;;;;;5010775;28;20050;-70
2020/12/13 11:30:32;;;;;;;8.20;4.25;;;8.20;44.40;;;;;;5012025;28;20045;-70
2020/12/13 11:32:59;;;;;;;8.27;3.40;;;8.20;40.70;;;;;;5010772;28;20046;-71
2020/12/13 11:35:27;;;;;;;5.38;3.63;;;8.20;41.50;;;;;;5011784;28;20075;-71
2020/12/13 11:37:54;;;;;;;5.50;3.50;;;8.10;41.40;;;;;;5010676;28;20084;-70
2020/12/13 11:40:20;;;;;;;6.95;3.38;;;8.20;42.60;;;;;;5012035;28;20519;-70
2020/12/13 11:42:47;;;;;;;5.93;3.67;;;8.30;42.90;;;;;;5011843;28;20050;-71
2020/12/13 11:45:14;;;;;;;6.43;3.22;;;8.30;42.10;;;;;;5011852;28;20061;-70
2020/12/13 11:47:41;;;;;;;6.32;3.47;;;8.30;38.90;;;;;;5010579;28;20053;-69
2020/12/13 11:50:10;;;;;;;6.97;3.50;;;8.30;40.80;;;;;;5011762;28;20077;-70
2020/12/13 11:52:39;;;;;;;4.78;3.08;;;8.20;40.70;;;;;;5011890;28;20064;-70
2020/12/13 11:55:07;;;;;;;4.38;3.17;;;8.30;40.80;;;;;;5010581;28;20042;-70
2020/12/13 11:57:34;;;;;;;6.78;3.58;;;8.10;39.70;;;;;;5010450;28;20050;-72
2020/12/13 12:00:15;;;;;;;4.90;2.58;;;8.20;39.00;;;;;;5011827;28;20060;-70
2020/12/13 12:02:47;;;;;;;4.10;2.38;;;8.00;36.30;;;;;;5011635;28;20139;-70
2020/12/13 12:05:14;;;;;;;6.82;2.13;;;7.90;36.40;;;;;;5011716;28;20137;-70
2020/12/13 12:07:42;;;;;;;2.97;2.22;;;7.90;36.90;;;;;;5010594;28;20048;-70
2020/12/13 12:10:09;;;;;;;3.47;2.03;;;7.80;37.60;;;;;;5011471;28;20056;-70
2020/12/13 12:12:36;;;;;;;7.60;2.80;;;7.80;37.50;;;;;;5011381;28;20058;-70
2020/12/13 12:15:03;;;;;;;11.75;5.10;;;7.80;38.30;;;;;;5009652;28;20049;-70
2020/12/13 12:17:30;;;;;;;14.20;6.75;;;7.70;40.00;;;;;;5010163;28;20056;-70
2020/12/13 12:19:57;;;;;;;12.45;6.47;;;7.80;40.40;;;;;;5011200;28;20050;-70
2020/12/13 12:22:23;;;;;;;8.85;5.05;;;7.80;41.00;;;;;;5011215;28;20045;-69
2020/12/13 12:24:51;;;;;;;6.57;3.78;;;7.80;40.30;;;;;;5010459;28;20046;-70
2020/12/13 12:27:18;;;;;;;10.38;4.25;;;7.80;40.40;;;;;;5009836;28;20111;-70
2020/12/13 12:29:45;;;;;;;7.38;3.58;;;7.80;42.30;;;;;;5010914;28;20052;-71
2020/12/13 12:32:11;;;;;;;5.32;3.72;;;7.80;41.40;;;;;;5011177;28;20042;-70
2020/12/13 12:34:39;;;;;;;4.95;3.30;;;7.90;41.20;;;;;;5010725;28;20057;-71
2020/12/13 12:37:06;;;;;;;6.25;3.58;;;7.90;40.40;;;;;;5010181;28;20079;-70
2020/12/13 12:39:33;;;;;;;7.30;3.88;;;7.90;40.70;;;;;;5009608;28;20061;-72
2020/12/13 12:42:01;;;;;;;4.28;2.80;;;7.90;40.80;;;;;;5010985;28;20050;-68
2020/12/13 12:44:27;;;;;;;8.98;3.30;;;7.90;38.70;;;;;;5010789;28;20048;-69
2020/12/13 12:46:54;;;;;;;5.05;2.78;;;8.00;40.50;;;;;;5008563;28;20054;-69
2020/12/13 12:49:21;;;;;;;7.32;2.90;;;8.00;37.90;;;;;;5010398;28;20073;-70
2020/12/13 12:51:48;;;;;;;4.78;2.65;;;7.90;37.80;;;;;;5010666;28;20054;-70
2020/12/13 12:54:17;;;;;;;5.57;2.75;;;8.00;38.60;;;;;;5010873;28;20168;-70
2020/12/13 12:56:44;;;;;;;5.10;2.78;;;7.90;39.20;;;;;;5008940;28;20049;-70
2020/12/13 12:59:14;;;;;;;6.00;2.47;;;7.80;37.30;;;;;;5011675;28;20045;-69
2020/12/13 13:01:43;;;;;;;4.55;2.65;;;7.90;36.20;;;;;;5014741;28;20053;-70
2020/12/13 13:04:12;;;;;;;5.95;2.80;;;7.90;35.80;;;;;;5014380;28;20559;-70
2020/12/13 13:06:56;;;;;;;7.20;3.03;;;7.90;36.50;;;;;;5012907;28;20141;-70
2020/12/13 13:09:28;;;;;;;6.70;3.00;;;7.90;35.90;;;;;;5014111;28;20050;-70